createdAt,value
2022-10-06T00:00:28.262Z,2.20
2022-10-06T00:02:54.709Z,2.03
2022-10-06T00:05:21.212Z,1.80
2022-10-06T00:07:47.638Z,1.90
2022-10-06T00:10:14.098Z,2.13
2022-10-06T00:12:41.705Z,1.90
2022-10-06T00:15:09.169Z,1.98
2022-10-06T00:17:35.534Z,2.10
2022-10-06T00:20:02.275Z,2.33
2022-10-06T00:22:35.440Z,2.05
2022-10-06T00:25:02.027Z,1.95
2022-10-06T00:27:35.288Z,1.90
2022-10-06T00:30:02.112Z,1.80
2022-10-06T00:32:28.422Z,1.77
2022-10-06T00:34:54.788Z,2.05
2022-10-06T00:37:21.094Z,1.90
2022-10-06T00:39:47.393Z,2.03
2022-10-06T00:42:27.393Z,2.05
2022-10-06T00:44:57.675Z,2.20
2022-10-06T00:47:24.478Z,2.10
2022-10-06T00:49:51.156Z,2.00
2022-10-06T00:52:19.716Z,1.90
2022-10-06T00:54:46.197Z,1.70
2022-10-06T00:57:12.919Z,2.25
2022-10-06T00:59:39.891Z,1.90
2022-10-06T01:02:22.009Z,2.40
2022-10-06T01:04:50.395Z,2.08
2022-10-06T01:07:17.326Z,2.17
2022-10-06T01:09:46.946Z,2.55
2022-10-06T01:12:13.766Z,2.20
2022-10-06T01:14:40.658Z,2.67
2022-10-06T01:17:19.661Z,2.22
2022-10-06T01:20:00.223Z,2.08
2022-10-06T01:22:30.809Z,2.10
2022-10-06T01:24:57.845Z,2.15
2022-10-06T01:27:25.323Z,2.25
2022-10-06T01:29:53.788Z,2.05
2022-10-06T01:32:20.961Z,2.45
2022-10-06T01:34:47.399Z,2.10
2022-10-06T01:37:13.717Z,2.20
2022-10-06T01:39:40.016Z,2.25
2022-10-06T01:42:06.553Z,2.10
2022-10-06T01:44:32.857Z,2.30
2022-10-06T01:46:59.156Z,2.30
2022-10-06T01:49:25.487Z,2.10
2022-10-06T01:51:52.920Z,2.58
2022-10-06T01:54:19.243Z,2.03
2022-10-06T01:56:45.608Z,2.15
2022-10-06T01:59:11.996Z,2.30
2022-10-06T02:01:40.731Z,2.30
2022-10-06T02:04:07.319Z,2.10
2022-10-06T02:06:33.717Z,2.30
2022-10-06T02:09:00.785Z,2.33
2022-10-06T02:11:27.442Z,2.20
2022-10-06T02:13:53.868Z,2.08
2022-10-06T02:16:21.530Z,2.15
2022-10-06T02:18:47.949Z,2.20
2022-10-06T02:21:18.516Z,2.60
2022-10-06T02:23:45.120Z,2.03
2022-10-06T02:26:12.416Z,1.80
2022-10-06T02:28:39.220Z,2.28
2022-10-06T02:31:07.377Z,2.00
2022-10-06T02:33:34.421Z,2.17
2022-10-06T02:36:00.800Z,1.83
2022-10-06T02:38:27.712Z,2.20
2022-10-06T02:40:54.228Z,2.10
2022-10-06T02:43:21.004Z,2.00
2022-10-06T02:45:57.251Z,1.95
2022-10-06T02:48:24.446Z,1.88
2022-10-06T02:51:01.152Z,2.08
2022-10-06T02:53:27.990Z,1.83
2022-10-06T02:56:20.840Z,1.70
2022-10-06T02:58:47.943Z,1.90
2022-10-06T03:01:15.927Z,2.20
2022-10-06T03:03:42.535Z,2.10
2022-10-06T03:06:25.924Z,2.65
2022-10-06T03:08:52.211Z,2.22
2022-10-06T03:11:22.533Z,2.33
2022-10-06T03:13:49.912Z,2.33
2022-10-06T03:16:38.632Z,2.40
2022-10-06T03:19:05.662Z,2.38
2022-10-06T03:21:33.725Z,2.05
2022-10-06T03:24:00.302Z,2.20
2022-10-06T03:26:31.636Z,2.20
2022-10-06T03:28:57.993Z,2.03
2022-10-06T03:31:25.443Z,2.40
2022-10-06T03:33:52.637Z,1.90
2022-10-06T03:36:20.186Z,2.30
2022-10-06T03:38:46.835Z,2.13
2022-10-06T03:41:13.167Z,2.65
2022-10-06T03:43:40.373Z,2.30
2022-10-06T03:46:06.963Z,2.40
2022-10-06T03:48:34.348Z,2.30
2022-10-06T03:51:01.765Z,2.10
2022-10-06T03:53:29.596Z,2.25
2022-10-06T03:56:00.393Z,2.22
2022-10-06T03:58:30.500Z,2.60
2022-10-06T04:01:07.529Z,2.45
2022-10-06T04:03:34.347Z,2.30
2022-10-06T04:06:01.822Z,2.30
2022-10-06T04:08:29.685Z,2.20
2022-10-06T04:10:56.184Z,2.35
2022-10-06T04:13:22.873Z,2.30
2022-10-06T04:15:49.210Z,2.13
2022-10-06T04:18:15.780Z,2.30
2022-10-06T04:20:42.798Z,2.40
2022-10-06T04:23:09.328Z,1.90
2022-10-06T04:25:35.620Z,2.10
2022-10-06T04:28:02.079Z,2.45
2022-10-06T04:30:28.874Z,2.60
2022-10-06T04:32:55.278Z,2.10
2022-10-06T04:35:21.774Z,2.00
2022-10-06T04:37:49.246Z,2.55
2022-10-06T04:40:15.806Z,2.50
2022-10-06T04:42:42.999Z,2.70
2022-10-06T04:45:10.488Z,2.35
2022-10-06T04:47:36.847Z,2.50
2022-10-06T04:50:03.263Z,2.20
2022-10-06T04:52:29.574Z,2.28
2022-10-06T04:54:55.912Z,2.28
2022-10-06T04:57:22.255Z,2.40
2022-10-06T05:00:12.475Z,2.35
2022-10-06T05:02:41.161Z,1.92
2022-10-06T05:05:08.005Z,2.30
2022-10-06T05:07:34.347Z,2.70
2022-10-06T05:10:00.709Z,2.17
2022-10-06T05:12:31.021Z,2.70
2022-10-06T05:14:57.729Z,2.65
2022-10-06T05:17:27.522Z,2.80
2022-10-06T05:19:53.798Z,2.50
2022-10-06T05:22:20.181Z,2.67
2022-10-06T05:24:46.530Z,2.60
2022-10-06T05:27:13.069Z,2.60
2022-10-06T05:29:39.415Z,3.10
2022-10-06T05:32:05.861Z,2.38
2022-10-06T05:34:32.199Z,3.03
2022-10-06T05:36:58.515Z,2.63
2022-10-06T05:39:25.003Z,2.88
2022-10-06T05:41:51.646Z,2.40
2022-10-06T05:44:17.931Z,2.60
2022-10-06T05:46:44.305Z,2.85
2022-10-06T05:49:12.799Z,2.75
2022-10-06T05:51:42.100Z,2.80
2022-10-06T05:54:08.535Z,3.08
2022-10-06T05:56:36.095Z,2.70
2022-10-06T05:59:02.840Z,2.60
2022-10-06T06:01:37.029Z,2.85
2022-10-06T06:04:04.723Z,2.50
2022-10-06T06:06:31.060Z,2.58
2022-10-06T06:08:58.787Z,2.83
2022-10-06T06:11:27.602Z,3.00
2022-10-06T06:14:04.906Z,3.10
2022-10-06T06:16:31.363Z,2.35
2022-10-06T06:18:57.975Z,1.10
2022-10-06T06:21:25.125Z,0.88
2022-10-06T06:23:51.914Z,0.60
2022-10-06T06:26:20.112Z,0.70
2022-10-06T06:28:47.639Z,0.75
2022-10-06T06:31:21.048Z,0.70
2022-10-06T06:33:47.842Z,0.65
2022-10-06T06:36:20.329Z,0.60
2022-10-06T06:38:50.140Z,1.10
2022-10-06T06:41:17.559Z,0.65
2022-10-06T06:43:44.409Z,0.60
2022-10-06T06:46:11.558Z,0.60
2022-10-06T06:48:38.087Z,0.70
2022-10-06T06:51:05.093Z,0.82
2022-10-06T06:53:31.671Z,0.80
2022-10-06T06:55:58.032Z,0.75
2022-10-06T06:58:24.507Z,0.65
2022-10-06T07:00:50.901Z,0.70
2022-10-06T07:03:38.378Z,0.85
2022-10-06T07:06:09.509Z,0.93
2022-10-06T07:08:37.512Z,0.90
2022-10-06T07:11:22.377Z,0.90
2022-10-06T07:13:53.610Z,1.00
2022-10-06T07:16:39.746Z,1.50
2022-10-06T07:22:14.777Z,2.40
2022-10-06T07:25:00.140Z,1.70
2022-10-06T07:27:26.941Z,1.60
2022-10-06T07:29:55.606Z,1.40
2022-10-06T07:32:23.025Z,1.13
2022-10-06T07:34:49.726Z,1.55
2022-10-06T07:37:16.342Z,1.40
2022-10-06T07:39:42.772Z,1.17
2022-10-06T07:42:15.225Z,1.40
2022-10-06T07:44:42.374Z,1.15
2022-10-06T07:47:09.112Z,0.90
2022-10-06T07:49:35.667Z,1.20
2022-10-06T07:52:02.572Z,0.93
2022-10-06T07:54:29.200Z,0.90
2022-10-06T07:56:55.871Z,0.80
2022-10-06T07:59:22.186Z,0.85
2022-10-06T08:01:51.409Z,1.05
2022-10-06T08:04:17.849Z,1.10
2022-10-06T08:06:44.482Z,0.70
2022-10-06T08:09:10.830Z,0.70
2022-10-06T08:11:37.148Z,0.70
2022-10-06T08:14:03.451Z,1.42
2022-10-06T08:16:30.524Z,0.80
2022-10-06T08:18:58.502Z,1.00
2022-10-06T08:21:24.791Z,1.20
2022-10-06T08:23:51.783Z,0.80
2022-10-06T08:26:19.137Z,0.90
2022-10-06T08:28:47.051Z,0.93
2022-10-06T08:31:15.685Z,1.00
2022-10-06T08:33:42.924Z,1.05
2022-10-06T08:36:10.480Z,1.15
2022-10-06T08:38:37.508Z,0.70
2022-10-06T08:41:16.681Z,1.00
2022-10-06T08:43:43.606Z,0.75
2022-10-06T08:46:14.487Z,0.90
2022-10-06T08:48:40.855Z,0.80
2022-10-06T08:51:18.670Z,0.70
2022-10-06T08:53:46.973Z,0.90
2022-10-06T08:56:27.522Z,0.90
2022-10-06T08:59:04.222Z,0.80
2022-10-06T09:01:41.666Z,0.85
2022-10-06T09:04:10.884Z,1.15
2022-10-06T09:06:51.043Z,0.82
2022-10-06T09:09:36.205Z,1.10
2022-10-06T09:12:02.549Z,0.93
2022-10-06T09:14:37.559Z,0.73
2022-10-06T09:17:07.551Z,0.70
2022-10-06T09:19:41.005Z,0.85
2022-10-06T09:22:12.277Z,1.02
2022-10-06T09:24:46.923Z,1.20
2022-10-06T09:27:26.720Z,0.70
2022-10-06T09:29:53.411Z,0.85
2022-10-06T09:32:21.481Z,0.88
2022-10-06T09:34:52.281Z,0.57
2022-10-06T09:37:19.124Z,1.10
2022-10-06T09:39:48.292Z,0.80
2022-10-06T09:42:17.687Z,1.00
2022-10-06T09:44:51.191Z,1.30
2022-10-06T09:47:24.350Z,1.10
2022-10-06T09:50:10.131Z,1.15
2022-10-06T09:52:36.529Z,1.27
2022-10-06T09:55:11.451Z,0.80
2022-10-06T09:57:38.213Z,1.13
2022-10-06T10:00:05.327Z,1.00
2022-10-06T10:02:31.735Z,1.00
2022-10-06T10:04:58.389Z,0.90
2022-10-06T10:07:28.800Z,1.10
2022-10-06T10:10:15.105Z,0.90
2022-10-06T10:12:49.257Z,0.85
2022-10-06T10:15:18.914Z,1.50
2022-10-06T10:17:48.606Z,1.10
2022-10-06T10:20:23.606Z,1.10
2022-10-06T10:22:50.258Z,1.23
2022-10-06T10:25:19.587Z,1.15
2022-10-06T10:27:58.716Z,1.20
2022-10-06T10:30:26.367Z,1.33
2022-10-06T10:32:52.998Z,1.60
2022-10-06T10:35:25.397Z,1.10
2022-10-06T10:38:11.129Z,1.50
2022-10-06T10:40:51.613Z,1.50
2022-10-06T10:43:29.446Z,1.50
2022-10-06T10:45:59.868Z,1.60
2022-10-06T10:48:30.153Z,1.45
2022-10-06T10:51:16.153Z,1.20
2022-10-06T10:56:09.797Z,1.48
2022-10-06T10:58:37.572Z,1.55
2022-10-06T11:01:16.500Z,1.17
2022-10-06T11:03:44.073Z,1.77
2022-10-06T11:06:39.640Z,1.20
2022-10-06T11:09:13.762Z,1.20
2022-10-06T11:11:51.256Z,1.55
2022-10-06T11:14:43.070Z,1.65
2022-10-06T11:17:12.542Z,1.70
2022-10-06T11:19:57.558Z,1.20
2022-10-06T11:22:24.059Z,1.40
2022-10-06T11:24:59.498Z,1.30
2022-10-06T11:27:44.979Z,1.10
2022-10-06T11:30:11.358Z,1.55
2022-10-06T11:32:42.538Z,1.30
2022-10-06T11:35:35.342Z,1.63
2022-10-06T11:38:01.722Z,1.83
2022-10-06T11:40:31.636Z,1.75
2022-10-06T11:43:10.278Z,1.35
2022-10-06T11:45:46.144Z,1.20
2022-10-06T11:48:24.641Z,1.33
2022-10-06T11:50:55.230Z,1.20
2022-10-06T11:53:42.667Z,0.90
2022-10-06T11:56:18.142Z,1.20
2022-10-06T11:58:50.533Z,1.27
2022-10-06T12:01:25.971Z,1.48
2022-10-06T12:04:04.087Z,1.33
2022-10-06T12:06:42.933Z,0.90
2022-10-06T12:09:28.551Z,1.25
2022-10-06T12:11:56.055Z,1.02
2022-10-06T12:17:33.241Z,1.15
2022-10-06T12:20:09.750Z,1.30
2022-10-06T12:22:40.962Z,1.05
2022-10-06T12:25:10.623Z,1.08
2022-10-06T12:27:43.062Z,0.95
2022-10-06T12:30:21.208Z,1.50
2022-10-06T12:33:13.713Z,1.23
2022-10-06T12:35:40.147Z,1.35
2022-10-06T12:38:26.532Z,1.23
2022-10-06T12:40:55.448Z,1.40
2022-10-06T12:43:22.433Z,1.50
2022-10-06T12:46:10.399Z,1.40
2022-10-06T12:48:52.189Z,1.63
2022-10-06T12:51:30.384Z,1.23
2022-10-06T12:53:59.592Z,1.60
2022-10-06T12:56:34.063Z,1.25
2022-10-06T12:59:20.390Z,1.40
2022-10-06T13:01:49.307Z,1.40
2022-10-06T13:04:56.870Z,1.30
2022-10-06T13:07:30.663Z,1.60
2022-10-06T13:10:15.259Z,1.30
2022-10-06T13:12:42.490Z,1.10
2022-10-06T13:17:58.355Z,1.23
2022-10-06T13:20:36.760Z,1.30
2022-10-06T13:23:08.821Z,1.08
2022-10-06T13:25:42.774Z,1.20
2022-10-06T13:28:19.125Z,1.20
2022-10-06T13:30:49.625Z,1.38
2022-10-06T13:33:18.350Z,1.30
2022-10-06T13:35:44.854Z,1.42
2022-10-06T13:38:11.219Z,1.13
2022-10-06T13:40:44.452Z,1.13
2022-10-06T13:43:15.338Z,1.17
2022-10-06T13:45:42.691Z,1.30
2022-10-06T13:48:15.173Z,1.50
2022-10-06T13:50:45.755Z,1.38
2022-10-06T13:53:23.503Z,1.00
2022-10-06T13:55:50.795Z,1.42
2022-10-06T13:58:18.377Z,1.20
2022-10-06T14:00:47.476Z,1.35
2022-10-06T14:03:22.371Z,0.98
2022-10-06T14:05:49.300Z,1.27
2022-10-06T14:08:24.426Z,1.40
2022-10-06T14:10:52.822Z,1.00
2022-10-06T14:13:21.059Z,1.17
2022-10-06T14:15:49.931Z,1.10
2022-10-06T14:18:20.752Z,1.67
2022-10-06T14:20:48.172Z,1.25
2022-10-06T14:23:32.480Z,1.15
2022-10-06T14:25:59.091Z,0.88
2022-10-06T14:28:25.497Z,1.40
2022-10-06T14:30:52.060Z,1.35
2022-10-06T14:33:18.395Z,1.10
2022-10-06T14:35:45.379Z,0.93
2022-10-06T14:38:12.902Z,1.08
2022-10-06T14:40:42.426Z,1.10
2022-10-06T14:43:11.213Z,0.93
2022-10-06T14:45:41.237Z,1.20
2022-10-06T14:48:10.349Z,1.08
2022-10-06T14:50:36.910Z,1.20
2022-10-06T14:53:03.746Z,0.90
2022-10-06T14:55:31.076Z,1.00
2022-10-06T14:57:59.749Z,1.33
2022-10-06T15:00:28.978Z,0.90
2022-10-06T15:02:56.227Z,1.40
2022-10-06T15:05:24.884Z,1.05
2022-10-06T15:08:09.864Z,0.82
2022-10-06T15:10:38.289Z,1.15
2022-10-06T15:13:06.345Z,1.10
2022-10-06T15:15:33.701Z,1.13
2022-10-06T15:18:02.402Z,1.25
2022-10-06T15:20:29.298Z,1.20
2022-10-06T15:22:56.302Z,0.90
2022-10-06T15:25:43.122Z,1.27
2022-10-06T15:28:50.452Z,1.08
2022-10-06T15:31:21.716Z,1.10
2022-10-06T15:33:52.342Z,0.80
2022-10-06T15:36:20.238Z,1.05
2022-10-06T15:38:46.988Z,1.00
2022-10-06T15:41:13.407Z,1.17
2022-10-06T15:43:55.490Z,1.15
2022-10-06T15:46:26.207Z,1.08
2022-10-06T15:48:53.418Z,1.20
2022-10-06T15:51:20.538Z,0.85
2022-10-06T15:53:46.911Z,1.20
2022-10-06T15:56:13.312Z,1.33
2022-10-06T15:58:39.816Z,1.00
2022-10-06T16:01:09.136Z,1.35
2022-10-06T16:03:41.078Z,1.50
2022-10-06T16:06:09.174Z,1.10
2022-10-06T16:08:35.750Z,1.23
2022-10-06T16:11:02.434Z,1.13
2022-10-06T16:13:29.113Z,1.23
2022-10-06T16:15:56.287Z,1.45
2022-10-06T16:18:22.762Z,1.35
2022-10-06T16:20:55.574Z,1.75
2022-10-06T16:23:22.881Z,1.48
2022-10-06T16:25:49.640Z,1.20
2022-10-06T16:28:16.074Z,1.30
2022-10-06T16:30:42.497Z,1.42
2022-10-06T16:33:08.862Z,1.20
2022-10-06T16:35:35.192Z,1.48
2022-10-06T16:38:01.532Z,1.42
2022-10-06T16:40:27.921Z,1.30
2022-10-06T16:42:54.295Z,1.90
2022-10-06T16:45:20.760Z,1.77
2022-10-06T16:47:47.116Z,1.25
2022-10-06T16:50:13.540Z,1.65
2022-10-06T16:52:40.309Z,1.90
2022-10-06T16:55:08.192Z,1.92
2022-10-06T16:57:38.830Z,1.73
2022-10-06T17:00:05.849Z,1.55
2022-10-06T17:02:33.960Z,2.10
2022-10-06T17:05:00.280Z,1.98
2022-10-06T17:07:26.643Z,2.00
2022-10-06T17:10:15.629Z,1.85
2022-10-06T17:12:39.659Z,2.10
2022-10-06T17:15:06.370Z,2.13
2022-10-06T17:17:32.660Z,1.83
2022-10-06T17:19:59.117Z,1.77
2022-10-06T17:22:25.730Z,1.75
2022-10-06T17:24:52.046Z,2.08
2022-10-06T17:27:18.400Z,2.08
2022-10-06T17:29:44.721Z,1.70
2022-10-06T17:32:11.105Z,2.17
2022-10-06T17:34:39.760Z,2.05
2022-10-06T17:37:06.897Z,2.20
2022-10-06T17:39:33.358Z,2.10
2022-10-06T17:41:59.854Z,2.00
2022-10-06T17:44:27.896Z,2.53
2022-10-06T17:46:55.705Z,2.55
2022-10-06T17:49:23.777Z,3.40
2022-10-06T17:51:50.841Z,2.65
2022-10-06T17:54:19.781Z,2.08
2022-10-06T17:56:50.241Z,2.40
2022-10-06T17:59:18.328Z,2.47
2022-10-06T18:01:44.939Z,2.20
2022-10-06T18:04:15.445Z,2.97
2022-10-06T18:06:41.989Z,3.05
2022-10-06T18:09:08.300Z,3.20
2022-10-06T18:11:43.526Z,3.00
2022-10-06T18:14:10.004Z,2.40
2022-10-06T18:16:39.715Z,2.60
2022-10-06T18:19:07.612Z,2.47
2022-10-06T18:21:38.719Z,2.60
2022-10-06T18:24:11.745Z,2.60
2022-10-06T18:26:41.744Z,2.90
2022-10-06T18:29:11.183Z,2.53
2022-10-06T18:31:38.089Z,2.72
2022-10-06T18:36:51.801Z,3.55
2022-10-06T18:39:18.254Z,3.00
2022-10-06T18:41:46.221Z,2.97
2022-10-06T18:44:12.987Z,2.97
2022-10-06T18:46:57.936Z,3.22
2022-10-06T18:49:24.761Z,3.50
2022-10-06T18:51:57.890Z,3.28
2022-10-06T18:54:27.039Z,3.78
2022-10-06T18:56:54.026Z,4.15
2022-10-06T18:59:22.738Z,3.55
2022-10-06T19:01:49.709Z,4.82
2022-10-06T19:04:17.483Z,5.85
2022-10-06T19:06:45.204Z,4.80
2022-10-06T19:09:17.505Z,5.97
2022-10-06T19:11:50.771Z,7.18
2022-10-06T19:14:21.373Z,4.82
2022-10-06T19:16:48.914Z,4.90
2022-10-06T19:19:16.761Z,4.13
2022-10-06T19:21:44.423Z,5.15
2022-10-06T19:24:12.630Z,5.53
2022-10-06T19:26:43.721Z,5.47
2022-10-06T19:29:13.583Z,5.47
2022-10-06T19:31:41.751Z,5.30
2022-10-06T19:34:10.902Z,5.40
2022-10-06T19:36:38.385Z,5.32
2022-10-06T19:39:11.532Z,4.90
2022-10-06T19:41:57.039Z,5.20
2022-10-06T19:44:23.672Z,4.97
2022-10-06T19:46:50.076Z,4.88
2022-10-06T19:49:17.103Z,5.43
2022-10-06T19:51:43.537Z,6.18
2022-10-06T19:54:11.652Z,5.68
2022-10-06T19:56:41.470Z,6.00
2022-10-06T19:59:16.098Z,6.25
2022-10-06T20:01:42.675Z,6.85
2022-10-06T20:04:09.298Z,6.03
2022-10-06T20:06:36.085Z,5.78
2022-10-06T20:09:06.786Z,5.80
2022-10-06T20:11:35.856Z,5.70
2022-10-06T20:14:10.612Z,6.20
2022-10-06T20:16:38.367Z,5.00
2022-10-06T20:19:05.428Z,5.97
2022-10-06T20:21:33.948Z,6.05
2022-10-06T20:24:01.690Z,6.38
2022-10-06T20:26:30.989Z,6.05
2022-10-06T20:28:58.199Z,6.10
2022-10-06T20:31:28.794Z,6.32
2022-10-06T20:33:57.920Z,6.18
2022-10-06T20:36:26.007Z,5.68
2022-10-06T20:39:11.786Z,6.25
2022-10-06T20:41:38.593Z,6.57
2022-10-06T20:44:04.913Z,6.60
2022-10-06T20:46:32.422Z,5.47
2022-10-06T20:49:03.775Z,5.35
2022-10-06T20:51:33.192Z,5.97
2022-10-06T20:54:00.384Z,7.07
2022-10-06T20:56:26.746Z,7.68
2022-10-06T20:58:53.432Z,6.85
2022-10-06T21:01:20.644Z,7.10
2022-10-06T21:03:49.113Z,6.65
2022-10-06T21:06:16.280Z,7.10
2022-10-06T21:08:44.135Z,8.05
2022-10-06T21:11:11.599Z,6.93
2022-10-06T21:13:38.374Z,7.13
2022-10-06T21:16:04.913Z,7.20
2022-10-06T21:18:31.613Z,6.18
2022-10-06T21:21:00.806Z,6.38
2022-10-06T21:23:30.409Z,6.20
2022-10-06T21:25:57.156Z,5.88
2022-10-06T21:28:25.486Z,6.35
2022-10-06T21:30:53.698Z,6.30
2022-10-06T21:33:23.108Z,6.30
2022-10-06T21:36:02.489Z,7.07
2022-10-06T21:38:29.164Z,6.18
2022-10-06T21:40:58.397Z,7.68
2022-10-06T21:43:25.028Z,7.03
2022-10-06T21:46:10.791Z,7.28
2022-10-06T21:48:37.939Z,6.13
2022-10-06T21:51:13.353Z,7.20
2022-10-06T21:53:42.141Z,6.53
2022-10-06T21:56:08.487Z,6.75
2022-10-06T21:58:35.066Z,6.60
2022-10-06T22:01:02.205Z,5.88
2022-10-06T22:03:31.826Z,6.72
2022-10-06T22:06:04.985Z,7.25
2022-10-06T22:08:31.907Z,6.40
2022-10-06T22:11:14.992Z,6.55
2022-10-06T22:13:43.000Z,7.35
2022-10-06T22:16:10.614Z,8.35
2022-10-06T22:18:37.747Z,8.30
2022-10-06T22:21:30.105Z,8.75
2022-10-06T22:24:00.529Z,7.60
2022-10-06T22:26:28.025Z,8.02
2022-10-06T22:28:55.617Z,8.63
2022-10-06T22:31:25.825Z,9.32
2022-10-06T22:33:54.509Z,8.63
2022-10-06T22:36:21.013Z,9.18
2022-10-06T22:38:47.482Z,8.55
2022-10-06T22:41:14.060Z,9.15
2022-10-06T22:43:40.863Z,9.35
2022-10-06T22:46:08.016Z,8.48
2022-10-06T22:48:34.775Z,8.95
2022-10-06T22:51:01.364Z,8.25
2022-10-06T22:53:31.354Z,8.48
2022-10-06T22:56:00.194Z,7.43
2022-10-06T22:58:27.041Z,8.55
2022-10-06T23:00:53.852Z,7.30
2022-10-06T23:03:20.312Z,7.35
2022-10-06T23:05:56.811Z,7.88
2022-10-06T23:08:23.505Z,7.65
2022-10-06T23:10:50.374Z,7.90
2022-10-06T23:13:16.744Z,7.78
2022-10-06T23:15:43.187Z,7.90
2022-10-06T23:18:09.623Z,7.95
2022-10-06T23:20:36.200Z,8.45
2022-10-06T23:23:02.687Z,8.52
2022-10-06T23:25:29.018Z,8.20
2022-10-06T23:27:55.413Z,7.97
2022-10-06T23:30:21.881Z,7.38
2022-10-06T23:32:48.194Z,7.18
2022-10-06T23:35:14.815Z,7.45
2022-10-06T23:37:41.423Z,7.95
2022-10-06T23:40:08.439Z,7.03
2022-10-06T23:42:34.826Z,7.22
2022-10-06T23:45:01.155Z,6.93
2022-10-06T23:47:27.634Z,6.90
2022-10-06T23:49:54.250Z,6.75
2022-10-06T23:52:20.572Z,7.22
2022-10-06T23:54:47.033Z,7.78
2022-10-06T23:57:13.473Z,7.25
2022-10-06T23:59:39.852Z,8.02
